PWSweather.com
Personal Weather Stations
Station Observations
WISCHPK61
Green Bay Schmitt Park, Green Bay, WI 54311

Green Bay Schmitt ParkGreen Bay, WI 54311

Lat: 44.514277, Lon: -87.935067

Elevation: 735

Station Type: Acu Rite Pro Weather Center model 02032C

http://greenbayweathercam.com

High Low Average
Temperature 88.9°F31.6°F 63.7°F17.6°F 74.7°F23.7°F
Dew Point 88.6°F31.4°F 55.6°F13.1°F 70.8°F21.6°F
Winds Calm -Calm - Calm Calm Calm Calm
Wind Gusts 4.6 mph7.4 mph -- 0.2 mph0.3 mph
Humidity 99% 61% 89%
Pressure 29.38 in994.90 in 29.15 in987.10 in -
Precipitation 0.00 in0.00 in - -
Hour Temp Dew Point Humidity Winds Wind Gusts Pressure Precip Precip Rate Daily Precip Total
12:00 AM 69.1°F20.6°C 68.8°F20.4°C 99% Calm Calm -- 29.15 in987.1 mb - 0.00 in0.0 mm 0.00 in0.0 mm
01:00 AM 66.9°F19.4°C 66.6°F19.2°C 99% Calm Calm -- 29.16 in987.5 mb - 0.00 in0.0 mm 0.00 in0.0 mm
02:00 AM 67.3°F19.6°C 55.6°F13.1°C 66% Calm Calm -- 29.17 in987.8 mb - 0.00 in0.0 mm 0.00 in0.0 mm
03:00 AM 66.7°F19.3°C 66.4°F19.1°C 99% Calm Calm -- 29.19 in988.5 mb - 0.00 in0.0 mm 0.00 in0.0 mm
04:00 AM 65.3°F18.5°C 60.3°F15.7°C 84% Calm Calm -- 29.20 in988.8 mb - 0.00 in0.0 mm 0.00 in0.0 mm
05:00 AM 64.0°F17.8°C 56.6°F13.7°C 77% Calm Calm -- 29.22 in989.5 mb - 0.00 in0.0 mm 0.00 in0.0 mm
06:00 AM 63.7°F17.6°C 59.1°F15.1°C 85% Calm Calm -- 29.24 in990.2 mb - 0.00 in0.0 mm 0.00 in0.0 mm
07:00 AM 64.0°F17.8°C 63.7°F17.6°C 99% Calm Calm -- 29.25 in990.5 mb - 0.00 in0.0 mm 0.00 in0.0 mm
08:00 AM 68.2°F20.1°C 67.9°F19.9°C 99% Calm Calm -- 29.26 in990.9 mb - 0.00 in0.0 mm 0.00 in0.0 mm
09:00 AM 72.9°F22.7°C 72.6°F22.6°C 99% Calm Calm -- 29.27 in991.2 mb - 0.00 in0.0 mm 0.00 in0.0 mm
10:00 AM 76.5°F24.7°C 76.2°F24.6°C 99% Calm Calm -- 29.29 in991.9 mb - 0.00 in0.0 mm 0.00 in0.0 mm
11:00 AM 79.5°F26.4°C 79.2°F26.2°C 99% Calm Calm -- 29.30 in992.2 mb - 0.00 in0.0 mm 0.00 in0.0 mm
12:00 PM 82.6°F28.1°C 71.8°F22.1°C 70% Calm Calm 4.6 mph7.4 kmh 29.30 in992.2 mb - 0.00 in0.0 mm 0.00 in0.0 mm
01:00 PM 83.8°F28.8°C 83.5°F28.6°C 99% Calm Calm -- 29.31 in992.6 mb - 0.00 in0.0 mm 0.00 in0.0 mm
02:00 PM 88.9°F31.6°C 88.6°F31.4°C 99% Calm Calm -- 29.30 in992.2 mb - 0.00 in0.0 mm 0.00 in0.0 mm
03:00 PM 85.3°F29.6°C 85.0°F29.4°C 99% Calm Calm -- 29.30 in992.2 mb - 0.00 in0.0 mm 0.00 in0.0 mm
04:00 PM 83.7°F28.7°C 83.4°F28.6°C 99% Calm Calm -- 29.30 in992.2 mb - 0.00 in0.0 mm 0.00 in0.0 mm
05:00 PM 85.1°F29.5°C 70.1°F21.2°C 61% Calm Calm 1.2 mph1.9 kmh 29.31 in992.6 mb - 0.00 in0.0 mm 0.00 in0.0 mm
06:00 PM 82.9°F28.3°C 82.6°F28.1°C 99% Calm Calm -- 29.30 in992.2 mb - 0.00 in0.0 mm 0.00 in0.0 mm
07:00 PM 80.6°F27.0°C 67.7°F19.8°C 65% Calm Calm -- 29.31 in992.6 mb - 0.00 in0.0 mm 0.00 in0.0 mm
08:00 PM 77.9°F25.5°C 77.6°F25.3°C 99% Calm Calm -- 29.32 in992.9 mb - 0.00 in0.0 mm 0.00 in0.0 mm
09:00 PM 74.1°F23.4°C 73.8°F23.2°C 99% Calm Calm -- 29.33 in993.2 mb - 0.00 in0.0 mm 0.00 in0.0 mm
10:00 PM 72.9°F22.7°C 63.7°F17.6°C 73% Calm Calm -- 29.37 in994.6 mb - 0.00 in0.0 mm 0.00 in0.0 mm
11:00 PM 71.8°F22.1°C 59.4°F15.2°C 65% Calm Calm -- 29.38 in994.9 mb - 0.00 in0.0 mm 0.00 in0.0 mm